カイロ の空港の天気 - METARとTAF

カイロ国際空港 ( HECA / CAI ) - エジプト [カイロ
飛行場実況気象(Metar)
観測時間11/27 11:30 EET (11/27 09:30 UTC)
風向・風速東北東 3m/s
視程10km以上
天気現象
なし
気温20℃
湿度49%
気圧1014hPa
METARHECA 270930Z 06005KT CAVOK 20/09 Q1014 NOSIG
過去の天気等 Google飛行場航空写真 Wunderground天気予報

過去48時間のMETAR

飛行場予報(TAF)
発表時間: 11/27 07:00 EET (11/27 05:00 UTC)
予報対象時間: 27日8時 EET ~ 28日14時 EET
風向・風速東北東 4m/s
視程10km以上
なし
TAF HECA 270500Z 2706/2812 06007KT CAVOK